sensor_id;sensor_type;location;lat;lon;timestamp;P1;durP1;ratioP1;P2;durP2;ratioP2
3789;SDS011;1910;49.042;9.028;2023-02-15T00:01:40;221.57;;;30.10;;
3789;SDS011;1910;49.042;9.028;2023-02-15T00:04:08;166.93;;;22.70;;
3789;SDS011;1910;49.042;9.028;2023-02-15T00:06:34;162.30;;;25.30;;
3789;SDS011;1910;49.042;9.028;2023-02-15T00:09:00;183.70;;;24.03;;
3789;SDS011;1910;49.042;9.028;2023-02-15T00:11:26;152.52;;;23.60;;
3789;SDS011;1910;49.042;9.028;2023-02-15T00:14:05;349.90;;;35.40;;
3789;SDS011;1910;49.042;9.028;2023-02-15T00:16:32;193.10;;;23.65;;
3789;SDS011;1910;49.042;9.028;2023-02-15T00:18:58;194.57;;;24.17;;
3789;SDS011;1910;49.042;9.028;2023-02-15T00:21:26;233.25;;;30.75;;
3789;SDS011;1910;49.042;9.028;2023-02-15T00:23:53;163.48;;;23.85;;
3789;SDS011;1910;49.042;9.028;2023-02-15T00:26:19;142.10;;;21.47;;
3789;SDS011;1910;49.042;9.028;2023-02-15T00:28:44;158.93;;;22.83;;
3789;SDS011;1910;49.042;9.028;2023-02-15T00:31:10;424.53;;;38.17;;
3789;SDS011;1910;49.042;9.028;2023-02-15T00:33:37;217.98;;;25.60;;
3789;SDS011;1910;49.042;9.028;2023-02-15T00:36:04;170.15;;;22.92;;
3789;SDS011;1910;49.042;9.028;2023-02-15T00:38:32;168.38;;;23.85;;
3789;SDS011;1910;49.042;9.028;2023-02-15T00:40:59;275.55;;;26.05;;
3789;SDS011;1910;49.042;9.028;2023-02-15T00:43:27;203.27;;;26.45;;
3789;SDS011;1910;49.042;9.028;2023-02-15T00:45:53;129.85;;;21.70;;
3789;SDS011;1910;49.042;9.028;2023-02-15T00:48:19;270.57;;;26.50;;
3789;SDS011;1910;49.042;9.028;2023-02-15T00:50:46;217.50;;;25.85;;
3789;SDS011;1910;49.042;9.028;2023-02-15T00:53:14;217.52;;;27.15;;
3789;SDS011;1910;49.042;9.028;2023-02-15T00:55:39;235.63;;;26.43;;
3789;SDS011;1910;49.042;9.028;2023-02-15T00:58:05;357.50;;;33.57;;
3789;SDS011;1910;49.042;9.028;2023-02-15T01:00:31;191.55;;;23.10;;
3789;SDS011;1910;49.042;9.028;2023-02-15T01:02:57;295.60;;;30.60;;
3789;SDS011;1910;49.042;9.028;2023-02-15T01:05:22;271.00;;;28.47;;
3789;SDS011;1910;49.042;9.028;2023-02-15T01:07:48;198.07;;;24.87;;
3789;SDS011;1910;49.042;9.028;2023-02-15T01:10:13;278.90;;;28.37;;
3789;SDS011;1910;49.042;9.028;2023-02-15T01:12:39;215.67;;;23.60;;
3789;SDS011;1910;49.042;9.028;2023-02-15T01:15:04;175.80;;;22.63;;
3789;SDS011;1910;49.042;9.028;2023-02-15T01:17:30;200.30;;;23.87;;
3789;SDS011;1910;49.042;9.028;2023-02-15T01:19:56;199.43;;;23.80;;
3789;SDS011;1910;49.042;9.028;2023-02-15T01:22:22;229.67;;;30.17;;
3789;SDS011;1910;49.042;9.028;2023-02-15T01:24:48;253.20;;;27.33;;
3789;SDS011;1910;49.042;9.028;2023-02-15T01:27:15;324.27;;;38.67;;
3789;SDS011;1910;49.042;9.028;2023-02-15T01:29:40;399.80;;;36.33;;
3789;SDS011;1910;49.042;9.028;2023-02-15T01:32:06;391.83;;;38.03;;
3789;SDS011;1910;49.042;9.028;2023-02-15T01:34:31;343.47;;;34.87;;
3789;SDS011;1910;49.042;9.028;2023-02-15T01:36:57;221.93;;;25.07;;
3789;SDS011;1910;49.042;9.028;2023-02-15T01:39:22;181.90;;;23.57;;
3789;SDS011;1910;49.042;9.028;2023-02-15T01:41:48;322.80;;;33.07;;
3789;SDS011;1910;49.042;9.028;2023-02-15T01:47:15;178.35;;;21.42;;
3789;SDS011;1910;49.042;9.028;2023-02-15T01:49:44;246.88;;;23.35;;
3789;SDS011;1910;49.042;9.028;2023-02-15T01:52:12;185.18;;;24.80;;
3789;SDS011;1910;49.042;9.028;2023-02-15T01:54:40;379.60;;;34.85;;
3789;SDS011;1910;49.042;9.028;2023-02-15T01:57:09;246.95;;;25.92;;
3789;SDS011;1910;49.042;9.028;2023-02-15T01:59:37;243.88;;;28.70;;
3789;SDS011;1910;49.042;9.028;2023-02-15T02:02:07;146.20;;;19.58;;
3789;SDS011;1910;49.042;9.028;2023-02-15T02:04:38;251.80;;;27.52;;
3789;SDS011;1910;49.042;9.028;2023-02-15T02:07:08;160.80;;;22.02;;
3789;SDS011;1910;49.042;9.028;2023-02-15T02:09:37;405.30;;;38.08;;
3789;SDS011;1910;49.042;9.028;2023-02-15T02:12:03;228.77;;;22.20;;
3789;SDS011;1910;49.042;9.028;2023-02-15T02:14:28;156.03;;;21.70;;
3789;SDS011;1910;49.042;9.028;2023-02-15T02:16:58;209.40;;;25.73;;
3789;SDS011;1910;49.042;9.028;2023-02-15T02:22:41;367.35;;;32.80;;
3789;SDS011;1910;49.042;9.028;2023-02-15T02:30:57;351.10;;;34.78;;
3789;SDS011;1910;49.042;9.028;2023-02-15T02:34:01;333.10;;;32.67;;
3789;SDS011;1910;49.042;9.028;2023-02-15T02:37:03;276.75;;;29.73;;
3789;SDS011;1910;49.042;9.028;2023-02-15T02:39:39;116.47;;;20.90;;
3789;SDS011;1910;49.042;9.028;2023-02-15T02:42:18;319.73;;;37.40;;
3789;SDS011;1910;49.042;9.028;2023-02-15T02:45:15;324.05;;;32.95;;
3789;SDS011;1910;49.042;9.028;2023-02-15T02:47:50;281.52;;;31.52;;
3789;SDS011;1910;49.042;9.028;2023-02-15T02:50:33;275.83;;;31.98;;
3789;SDS011;1910;49.042;9.028;2023-02-15T02:52:59;402.63;;;37.27;;
3789;SDS011;1910;49.042;9.028;2023-02-15T02:55:33;120.40;;;22.05;;
3789;SDS011;1910;49.042;9.028;2023-02-15T03:00:57;172.07;;;23.85;;
3789;SDS011;1910;49.042;9.028;2023-02-15T03:03:24;382.67;;;35.72;;
3789;SDS011;1910;49.042;9.028;2023-02-15T03:05:58;379.55;;;34.50;;
3789;SDS011;1910;49.042;9.028;2023-02-15T03:08:27;410.85;;;36.28;;
3789;SDS011;1910;49.042;9.028;2023-02-15T03:11:15;203.98;;;22.95;;
3789;SDS011;1910;49.042;9.028;2023-02-15T03:13:40;250.90;;;29.30;;
3789;SDS011;1910;49.042;9.028;2023-02-15T03:16:07;215.32;;;25.65;;
3789;SDS011;1910;49.042;9.028;2023-02-15T03:18:55;266.83;;;30.58;;
3789;SDS011;1910;49.042;9.028;2023-02-15T03:21:45;363.35;;;36.55;;
3789;SDS011;1910;49.042;9.028;2023-02-15T03:24:29;417.15;;;39.40;;
3789;SDS011;1910;49.042;9.028;2023-02-15T03:27:02;185.23;;;24.13;;
3789;SDS011;1910;49.042;9.028;2023-02-15T03:29:30;340.58;;;35.63;;
3789;SDS011;1910;49.042;9.028;2023-02-15T03:31:59;143.82;;;18.63;;
3789;SDS011;1910;49.042;9.028;2023-02-15T03:34:27;301.00;;;31.55;;
3789;SDS011;1910;49.042;9.028;2023-02-15T03:37:00;228.35;;;28.60;;
3789;SDS011;1910;49.042;9.028;2023-02-15T03:39:49;230.18;;;28.83;;
3789;SDS011;1910;49.042;9.028;2023-02-15T03:42:26;195.80;;;23.83;;
3789;SDS011;1910;49.042;9.028;2023-02-15T03:44:58;197.13;;;23.70;;
3789;SDS011;1910;49.042;9.028;2023-02-15T03:47:33;105.25;;;21.02;;
3789;SDS011;1910;49.042;9.028;2023-02-15T03:50:04;284.70;;;29.30;;
3789;SDS011;1910;49.042;9.028;2023-02-15T03:52:55;306.15;;;29.67;;
3789;SDS011;1910;49.042;9.028;2023-02-15T03:55:24;177.93;;;23.75;;
3789;SDS011;1910;49.042;9.028;2023-02-15T03:57:50;141.38;;;22.00;;
3789;SDS011;1910;49.042;9.028;2023-02-15T04:00:36;229.93;;;26.33;;
3789;SDS011;1910;49.042;9.028;2023-02-15T04:06:08;190.27;;;24.33;;
3789;SDS011;1910;49.042;9.028;2023-02-15T04:08:34;242.30;;;34.70;;
3789;SDS011;1910;49.042;9.028;2023-02-15T04:11:18;133.20;;;21.27;;
3789;SDS011;1910;49.042;9.028;2023-02-15T04:13:43;199.80;;;24.70;;
3789;SDS011;1910;49.042;9.028;2023-02-15T04:16:09;116.97;;;21.60;;
3789;SDS011;1910;49.042;9.028;2023-02-15T04:18:38;104.20;;;21.20;;
3789;SDS011;1910;49.042;9.028;2023-02-15T04:21:24;149.70;;;22.80;;
3789;SDS011;1910;49.042;9.028;2023-02-15T04:24:10;149.98;;;23.33;;
3789;SDS011;1910;49.042;9.028;2023-02-15T04:26:55;96.53;;;20.45;;
3789;SDS011;1910;49.042;9.028;2023-02-15T04:29:22;126.03;;;24.55;;
3789;SDS011;1910;49.042;9.028;2023-02-15T04:31:49;98.22;;;22.23;;
3789;SDS011;1910;49.042;9.028;2023-02-15T04:34:16;171.15;;;22.90;;
3789;SDS011;1910;49.042;9.028;2023-02-15T04:36:41;135.80;;;22.77;;
3789;SDS011;1910;49.042;9.028;2023-02-15T04:39:08;157.10;;;21.90;;
3789;SDS011;1910;49.042;9.028;2023-02-15T04:41:34;59.47;;;19.00;;
3789;SDS011;1910;49.042;9.028;2023-02-15T04:44:00;68.63;;;16.07;;
3789;SDS011;1910;49.042;9.028;2023-02-15T04:46:26;91.57;;;23.40;;
3789;SDS011;1910;49.042;9.028;2023-02-15T04:48:53;113.85;;;20.73;;
3789;SDS011;1910;49.042;9.028;2023-02-15T04:51:18;95.20;;;16.08;;
3789;SDS011;1910;49.042;9.028;2023-02-15T04:53:44;129.47;;;18.67;;
3789;SDS011;1910;49.042;9.028;2023-02-15T04:56:09;135.93;;;21.00;;
3789;SDS011;1910;49.042;9.028;2023-02-15T04:58:35;94.43;;;18.43;;
3789;SDS011;1910;49.042;9.028;2023-02-15T05:01:02;87.10;;;19.63;;
3789;SDS011;1910;49.042;9.028;2023-02-15T05:03:28;146.88;;;22.52;;
3789;SDS011;1910;49.042;9.028;2023-02-15T05:05:53;128.63;;;23.27;;
3789;SDS011;1910;49.042;9.028;2023-02-15T05:08:19;73.43;;;18.70;;
3789;SDS011;1910;49.042;9.028;2023-02-15T05:10:47;166.30;;;24.67;;
3789;SDS011;1910;49.042;9.028;2023-02-15T05:13:13;87.55;;;17.80;;
3789;SDS011;1910;49.042;9.028;2023-02-15T05:15:39;65.33;;;18.93;;
3789;SDS011;1910;49.042;9.028;2023-02-15T05:18:04;104.30;;;24.17;;
3789;SDS011;1910;49.042;9.028;2023-02-15T05:20:31;96.30;;;18.05;;
3789;SDS011;1910;49.042;9.028;2023-02-15T05:22:56;105.77;;;18.00;;
3789;SDS011;1910;49.042;9.028;2023-02-15T05:25:22;62.10;;;14.97;;
3789;SDS011;1910;49.042;9.028;2023-02-15T05:28:08;69.03;;;16.10;;
3789;SDS011;1910;49.042;9.028;2023-02-15T05:30:44;102.72;;;21.90;;
3789;SDS011;1910;49.042;9.028;2023-02-15T05:33:10;126.15;;;21.65;;
3789;SDS011;1910;49.042;9.028;2023-02-15T05:35:36;167.57;;;21.07;;
3789;SDS011;1910;49.042;9.028;2023-02-15T05:38:01;166.10;;;21.33;;
3789;SDS011;1910;49.042;9.028;2023-02-15T05:40:27;81.97;;;16.83;;
3789;SDS011;1910;49.042;9.028;2023-02-15T05:42:52;69.57;;;16.90;;
3789;SDS011;1910;49.042;9.028;2023-02-15T05:45:18;77.57;;;18.90;;
3789;SDS011;1910;49.042;9.028;2023-02-15T05:47:43;108.73;;;17.87;;
3789;SDS011;1910;49.042;9.028;2023-02-15T05:50:09;67.63;;;17.73;;
3789;SDS011;1910;49.042;9.028;2023-02-15T05:52:36;91.20;;;18.60;;
3789;SDS011;1910;49.042;9.028;2023-02-15T05:55:02;97.95;;;17.13;;
3789;SDS011;1910;49.042;9.028;2023-02-15T05:57:29;132.48;;;19.80;;
3789;SDS011;1910;49.042;9.028;2023-02-15T05:59:55;51.57;;;16.07;;
3789;SDS011;1910;49.042;9.028;2023-02-15T06:02:20;86.20;;;18.27;;
3789;SDS011;1910;49.042;9.028;2023-02-15T06:04:46;47.43;;;16.57;;
3789;SDS011;1910;49.042;9.028;2023-02-15T06:07:11;59.03;;;17.27;;
3789;SDS011;1910;49.042;9.028;2023-02-15T06:09:37;84.53;;;17.87;;
3789;SDS011;1910;49.042;9.028;2023-02-15T06:12:03;54.27;;;16.50;;
3789;SDS011;1910;49.042;9.028;2023-02-15T06:14:28;113.80;;;19.37;;
3789;SDS011;1910;49.042;9.028;2023-02-15T06:16:54;80.90;;;21.53;;
3789;SDS011;1910;49.042;9.028;2023-02-15T06:19:19;58.90;;;17.80;;
3789;SDS011;1910;49.042;9.028;2023-02-15T06:21:46;53.28;;;18.13;;
3789;SDS011;1910;49.042;9.028;2023-02-15T06:24:11;51.20;;;17.17;;
3789;SDS011;1910;49.042;9.028;2023-02-15T06:26:37;64.07;;;17.03;;
3789;SDS011;1910;49.042;9.028;2023-02-15T06:29:02;61.83;;;15.80;;
3789;SDS011;1910;49.042;9.028;2023-02-15T06:31:28;41.60;;;15.87;;
3789;SDS011;1910;49.042;9.028;2023-02-15T06:33:54;70.93;;;17.87;;
3789;SDS011;1910;49.042;9.028;2023-02-15T06:36:26;52.15;;;16.02;;
3789;SDS011;1910;49.042;9.028;2023-02-15T06:38:54;40.90;;;15.32;;
3789;SDS011;1910;49.042;9.028;2023-02-15T06:41:20;43.47;;;15.53;;
3789;SDS011;1910;49.042;9.028;2023-02-15T06:43:46;83.03;;;18.40;;
3789;SDS011;1910;49.042;9.028;2023-02-15T06:46:12;55.30;;;16.90;;
3789;SDS011;1910;49.042;9.028;2023-02-15T06:48:37;65.73;;;17.43;;
3789;SDS011;1910;49.042;9.028;2023-02-15T06:51:03;69.53;;;20.20;;
3789;SDS011;1910;49.042;9.028;2023-02-15T06:53:28;71.37;;;20.10;;
3789;SDS011;1910;49.042;9.028;2023-02-15T06:55:59;42.90;;;15.60;;
3789;SDS011;1910;49.042;9.028;2023-02-15T06:58:31;63.85;;;17.58;;
3789;SDS011;1910;49.042;9.028;2023-02-15T07:00:57;94.28;;;18.83;;
3789;SDS011;1910;49.042;9.028;2023-02-15T07:03:23;86.40;;;19.57;;
3789;SDS011;1910;49.042;9.028;2023-02-15T07:05:48;77.70;;;16.77;;
3789;SDS011;1910;49.042;9.028;2023-02-15T07:08:14;68.27;;;18.43;;
3789;SDS011;1910;49.042;9.028;2023-02-15T07:10:42;121.13;;;21.73;;
3789;SDS011;1910;49.042;9.028;2023-02-15T07:13:09;80.53;;;18.80;;
3789;SDS011;1910;49.042;9.028;2023-02-15T07:15:34;96.20;;;18.80;;
3789;SDS011;1910;49.042;9.028;2023-02-15T07:18:00;94.00;;;18.57;;
3789;SDS011;1910;49.042;9.028;2023-02-15T07:20:25;35.37;;;14.80;;
3789;SDS011;1910;49.042;9.028;2023-02-15T07:22:51;61.87;;;17.33;;
3789;SDS011;1910;49.042;9.028;2023-02-15T07:25:16;88.43;;;19.80;;
3789;SDS011;1910;49.042;9.028;2023-02-15T07:27:43;63.33;;;17.08;;
3789;SDS011;1910;49.042;9.028;2023-02-15T07:30:11;117.30;;;20.08;;
3789;SDS011;1910;49.042;9.028;2023-02-15T07:32:38;102.22;;;19.65;;
3789;SDS011;1910;49.042;9.028;2023-02-15T07:35:24;116.68;;;19.40;;
3789;SDS011;1910;49.042;9.028;2023-02-15T07:37:49;195.77;;;24.73;;
3789;SDS011;1910;49.042;9.028;2023-02-15T07:40:15;142.90;;;24.57;;
3789;SDS011;1910;49.042;9.028;2023-02-15T07:42:40;51.13;;;16.57;;
3789;SDS011;1910;49.042;9.028;2023-02-15T07:45:06;41.40;;;14.20;;
3789;SDS011;1910;49.042;9.028;2023-02-15T07:47:32;68.07;;;16.27;;
3789;SDS011;1910;49.042;9.028;2023-02-15T07:49:57;43.30;;;14.63;;
3789;SDS011;1910;49.042;9.028;2023-02-15T07:52:23;49.30;;;16.37;;
3789;SDS011;1910;49.042;9.028;2023-02-15T07:54:50;99.75;;;18.42;;
3789;SDS011;1910;49.042;9.028;2023-02-15T07:57:15;39.43;;;15.33;;
3789;SDS011;1910;49.042;9.028;2023-02-15T07:59:41;69.20;;;15.73;;
3789;SDS011;1910;49.042;9.028;2023-02-15T08:02:10;60.37;;;18.37;;
3789;SDS011;1910;49.042;9.028;2023-02-15T08:04:36;126.35;;;20.58;;
3789;SDS011;1910;49.042;9.028;2023-02-15T08:07:01;178.00;;;24.60;;
3789;SDS011;1910;49.042;9.028;2023-02-15T08:09:27;114.60;;;19.43;;
3789;SDS011;1910;49.042;9.028;2023-02-15T08:11:52;89.43;;;18.67;;
3789;SDS011;1910;49.042;9.028;2023-02-15T08:14:21;99.13;;;19.43;;
3789;SDS011;1910;49.042;9.028;2023-02-15T08:16:50;73.25;;;20.90;;
3789;SDS011;1910;49.042;9.028;2023-02-15T08:19:18;134.07;;;22.80;;
3789;SDS011;1910;49.042;9.028;2023-02-15T08:21:46;91.43;;;18.27;;
3789;SDS011;1910;49.042;9.028;2023-02-15T08:24:14;65.05;;;16.10;;
3789;SDS011;1910;49.042;9.028;2023-02-15T08:26:40;87.03;;;17.10;;
3789;SDS011;1910;49.042;9.028;2023-02-15T08:29:07;163.25;;;23.77;;
3789;SDS011;1910;49.042;9.028;2023-02-15T08:31:33;120.27;;;18.87;;
3789;SDS011;1910;49.042;9.028;2023-02-15T08:34:00;78.72;;;19.90;;
3789;SDS011;1910;49.042;9.028;2023-02-15T08:36:27;112.93;;;21.70;;
3789;SDS011;1910;49.042;9.028;2023-02-15T08:38:54;103.28;;;20.90;;
3789;SDS011;1910;49.042;9.028;2023-02-15T08:41:23;66.85;;;17.90;;
3789;SDS011;1910;49.042;9.028;2023-02-15T08:43:54;79.47;;;19.60;;
3789;SDS011;1910;49.042;9.028;2023-02-15T08:46:21;38.38;;;15.65;;
3789;SDS011;1910;49.042;9.028;2023-02-15T08:48:49;62.15;;;17.77;;
3789;SDS011;1910;49.042;9.028;2023-02-15T08:51:18;92.70;;;17.97;;
3789;SDS011;1910;49.042;9.028;2023-02-15T08:53:49;81.93;;;18.75;;
3789;SDS011;1910;49.042;9.028;2023-02-15T08:56:17;130.38;;;22.00;;
3789;SDS011;1910;49.042;9.028;2023-02-15T08:58:45;95.68;;;19.77;;
3789;SDS011;1910;49.042;9.028;2023-02-15T09:01:11;115.90;;;22.30;;
3789;SDS011;1910;49.042;9.028;2023-02-15T09:03:38;109.10;;;19.83;;
3789;SDS011;1910;49.042;9.028;2023-02-15T09:06:05;131.13;;;22.43;;
3789;SDS011;1910;49.042;9.028;2023-02-15T09:08:30;50.25;;;17.35;;
3789;SDS011;1910;49.042;9.028;2023-02-15T09:11:18;55.47;;;18.33;;
3789;SDS011;1910;49.042;9.028;2023-02-15T09:13:52;69.75;;;17.50;;
3789;SDS011;1910;49.042;9.028;2023-02-15T09:16:19;53.75;;;17.15;;
3789;SDS011;1910;49.042;9.028;2023-02-15T09:18:46;70.97;;;18.10;;
3789;SDS011;1910;49.042;9.028;2023-02-15T09:21:13;52.00;;;17.48;;
3789;SDS011;1910;49.042;9.028;2023-02-15T09:23:44;34.22;;;16.90;;
3789;SDS011;1910;49.042;9.028;2023-02-15T09:26:12;72.03;;;19.75;;
3789;SDS011;1910;49.042;9.028;2023-02-15T09:28:39;43.53;;;15.93;;
3789;SDS011;1910;49.042;9.028;2023-02-15T09:31:09;37.23;;;18.13;;
3789;SDS011;1910;49.042;9.028;2023-02-15T09:33:46;49.78;;;19.52;;
3789;SDS011;1910;49.042;9.028;2023-02-15T09:36:20;44.88;;;16.35;;
3789;SDS011;1910;49.042;9.028;2023-02-15T09:38:55;38.60;;;16.23;;
3789;SDS011;1910;49.042;9.028;2023-02-15T09:41:33;43.08;;;18.30;;
3789;SDS011;1910;49.042;9.028;2023-02-15T09:44:22;33.22;;;18.40;;
3789;SDS011;1910;49.042;9.028;2023-02-15T10:12:26;53.70;;;18.52;;
3789;SDS011;1910;49.042;9.028;2023-02-15T10:15:16;50.72;;;17.30;;
3789;SDS011;1910;49.042;9.028;2023-02-15T10:21:09;35.28;;;16.25;;
3789;SDS011;1910;49.042;9.028;2023-02-15T10:24:22;34.38;;;17.27;;
3789;SDS011;1910;49.042;9.028;2023-02-15T10:26:53;36.08;;;17.45;;
3789;SDS011;1910;49.042;9.028;2023-02-15T10:29:37;51.40;;;17.90;;
3789;SDS011;1910;49.042;9.028;2023-02-15T10:32:10;39.55;;;16.75;;
3789;SDS011;1910;49.042;9.028;2023-02-15T10:35:00;41.17;;;16.50;;
3789;SDS011;1910;49.042;9.028;2023-02-15T10:37:47;37.80;;;16.15;;
3789;SDS011;1910;49.042;9.028;2023-02-15T10:43:56;44.70;;;16.40;;
3789;SDS011;1910;49.042;9.028;2023-02-15T10:49:23;56.50;;;18.52;;
3789;SDS011;1910;49.042;9.028;2023-02-15T10:57:16;68.68;;;17.27;;
3789;SDS011;1910;49.042;9.028;2023-02-15T11:02:27;93.05;;;22.55;;
3789;SDS011;1910;49.042;9.028;2023-02-15T11:07:52;49.28;;;20.45;;
3789;SDS011;1910;49.042;9.028;2023-02-15T11:12:54;78.47;;;25.10;;
3789;SDS011;1910;49.042;9.028;2023-02-15T11:18:14;49.92;;;20.85;;
3789;SDS011;1910;49.042;9.028;2023-02-15T11:23:15;58.70;;;21.52;;
3789;SDS011;1910;49.042;9.028;2023-02-15T11:25:44;58.75;;;22.27;;
3789;SDS011;1910;49.042;9.028;2023-02-15T11:28:17;98.35;;;22.13;;
3789;SDS011;1910;49.042;9.028;2023-02-15T11:30:48;62.30;;;21.00;;
3789;SDS011;1910;49.042;9.028;2023-02-15T11:33:22;56.63;;;19.73;;
3789;SDS011;1910;49.042;9.028;2023-02-15T11:38:26;69.15;;;21.65;;
3789;SDS011;1910;49.042;9.028;2023-02-15T11:40:55;63.85;;;18.73;;
3789;SDS011;1910;49.042;9.028;2023-02-15T11:43:38;92.10;;;22.88;;
3789;SDS011;1910;49.042;9.028;2023-02-15T11:46:14;91.18;;;20.30;;
3789;SDS011;1910;49.042;9.028;2023-02-15T11:48:40;108.50;;;22.57;;
3789;SDS011;1910;49.042;9.028;2023-02-15T11:51:17;87.82;;;19.23;;
3789;SDS011;1910;49.042;9.028;2023-02-15T11:53:45;62.05;;;20.73;;
3789;SDS011;1910;49.042;9.028;2023-02-15T11:56:13;76.28;;;20.83;;
3789;SDS011;1910;49.042;9.028;2023-02-15T11:58:53;78.70;;;21.13;;
3789;SDS011;1910;49.042;9.028;2023-02-15T12:01:21;81.32;;;20.67;;
3789;SDS011;1910;49.042;9.028;2023-02-15T12:04:16;90.13;;;22.45;;
3789;SDS011;1910;49.042;9.028;2023-02-15T12:07:01;59.60;;;19.33;;
3789;SDS011;1910;49.042;9.028;2023-02-15T12:14:52;76.20;;;20.20;;
3789;SDS011;1910;49.042;9.028;2023-02-15T12:17:26;61.40;;;18.60;;
3789;SDS011;1910;49.042;9.028;2023-02-15T12:20:00;75.57;;;20.38;;
3789;SDS011;1910;49.042;9.028;2023-02-15T12:22:50;59.55;;;19.95;;
3789;SDS011;1910;49.042;9.028;2023-02-15T12:25:22;39.33;;;18.25;;
3789;SDS011;1910;49.042;9.028;2023-02-15T12:27:54;56.05;;;19.92;;
3789;SDS011;1910;49.042;9.028;2023-02-15T12:32:57;50.40;;;18.40;;
3789;SDS011;1910;49.042;9.028;2023-02-15T12:35:31;60.92;;;19.02;;
3789;SDS011;1910;49.042;9.028;2023-02-15T12:38:21;67.45;;;19.48;;
3789;SDS011;1910;49.042;9.028;2023-02-15T12:41:01;37.10;;;18.98;;
3789;SDS011;1910;49.042;9.028;2023-02-15T12:43:46;37.38;;;17.23;;
3789;SDS011;1910;49.042;9.028;2023-02-15T12:49:04;49.83;;;19.35;;
3789;SDS011;1910;49.042;9.028;2023-02-15T12:51:42;80.32;;;20.42;;
3789;SDS011;1910;49.042;9.028;2023-02-15T12:56:59;68.07;;;20.50;;
3789;SDS011;1910;49.042;9.028;2023-02-15T13:00:30;60.30;;;20.00;;
3789;SDS011;1910;49.042;9.028;2023-02-15T13:02:57;34.03;;;17.90;;
3789;SDS011;1910;49.042;9.028;2023-02-15T13:05:37;43.80;;;20.45;;
3789;SDS011;1910;49.042;9.028;2023-02-15T13:13:24;43.17;;;26.48;;
3789;SDS011;1910;49.042;9.028;2023-02-15T13:15:56;43.70;;;25.95;;
3789;SDS011;1910;49.042;9.028;2023-02-15T13:20:54;33.95;;;18.15;;
3789;SDS011;1910;49.042;9.028;2023-02-15T13:23:26;30.47;;;17.47;;
3789;SDS011;1910;49.042;9.028;2023-02-15T13:25:54;38.10;;;20.23;;
3789;SDS011;1910;49.042;9.028;2023-02-15T13:28:23;34.10;;;18.38;;
3789;SDS011;1910;49.042;9.028;2023-02-15T13:31:00;31.83;;;19.17;;
3789;SDS011;1910;49.042;9.028;2023-02-15T13:33:36;34.20;;;18.63;;
3789;SDS011;1910;49.042;9.028;2023-02-15T13:36:23;40.20;;;20.33;;
3789;SDS011;1910;49.042;9.028;2023-02-15T13:44:51;35.03;;;21.50;;
3789;SDS011;1910;49.042;9.028;2023-02-15T13:47:21;35.42;;;21.67;;
3789;SDS011;1910;49.042;9.028;2023-02-15T13:50:19;35.63;;;21.50;;
3789;SDS011;1910;49.042;9.028;2023-02-15T13:55:40;41.28;;;22.90;;
3789;SDS011;1910;49.042;9.028;2023-02-15T14:04:05;36.63;;;21.40;;
3789;SDS011;1910;49.042;9.028;2023-02-15T14:06:53;35.90;;;20.35;;
3789;SDS011;1910;49.042;9.028;2023-02-15T14:11:54;38.58;;;22.05;;
3789;SDS011;1910;49.042;9.028;2023-02-15T14:14:39;38.42;;;22.52;;
3789;SDS011;1910;49.042;9.028;2023-02-15T14:17:32;41.25;;;22.75;;
3789;SDS011;1910;49.042;9.028;2023-02-15T14:20:23;38.67;;;20.75;;
3789;SDS011;1910;49.042;9.028;2023-02-15T14:25:35;43.72;;;22.33;;
3789;SDS011;1910;49.042;9.028;2023-02-15T14:28:14;39.25;;;20.25;;
3789;SDS011;1910;49.042;9.028;2023-02-15T14:30:48;38.22;;;21.95;;
3789;SDS011;1910;49.042;9.028;2023-02-15T14:36:02;40.35;;;23.58;;
3789;SDS011;1910;49.042;9.028;2023-02-15T14:38:44;42.65;;;22.85;;
3789;SDS011;1910;49.042;9.028;2023-02-15T14:44:01;38.47;;;24.13;;
3789;SDS011;1910;49.042;9.028;2023-02-15T14:49:12;46.13;;;25.08;;
3789;SDS011;1910;49.042;9.028;2023-02-15T14:56:42;43.65;;;24.55;;
3789;SDS011;1910;49.042;9.028;2023-02-15T14:59:21;38.70;;;25.20;;
3789;SDS011;1910;49.042;9.028;2023-02-15T15:01:55;37.92;;;24.13;;
3789;SDS011;1910;49.042;9.028;2023-02-15T15:07:19;43.25;;;23.10;;
3789;SDS011;1910;49.042;9.028;2023-02-15T15:10:00;36.63;;;22.65;;
3789;SDS011;1910;49.042;9.028;2023-02-15T15:15:00;41.28;;;22.02;;
3789;SDS011;1910;49.042;9.028;2023-02-15T15:20:11;38.97;;;21.42;;
3789;SDS011;1910;49.042;9.028;2023-02-15T15:22:42;34.88;;;22.90;;
3789;SDS011;1910;49.042;9.028;2023-02-15T15:25:40;33.00;;;20.70;;
3789;SDS011;1910;49.042;9.028;2023-02-15T15:28:52;34.67;;;21.25;;
3789;SDS011;1910;49.042;9.028;2023-02-15T15:31:06;35.40;;;20.38;;
3789;SDS011;1910;49.042;9.028;2023-02-15T15:33:40;31.17;;;18.73;;
3789;SDS011;1910;49.042;9.028;2023-02-15T15:36:37;36.08;;;20.20;;
3789;SDS011;1910;49.042;9.028;2023-02-15T15:48:19;40.08;;;20.10;;
3789;SDS011;1910;49.042;9.028;2023-02-15T15:51:21;24.67;;;15.57;;
3789;SDS011;1910;49.042;9.028;2023-02-15T15:53:52;26.15;;;14.82;;
3789;SDS011;1910;49.042;9.028;2023-02-15T15:56:19;20.25;;;13.55;;
3789;SDS011;1910;49.042;9.028;2023-02-15T15:59:01;30.20;;;17.25;;
3789;SDS011;1910;49.042;9.028;2023-02-15T16:01:30;30.75;;;16.60;;
3789;SDS011;1910;49.042;9.028;2023-02-15T16:04:01;26.38;;;14.60;;
3789;SDS011;1910;49.042;9.028;2023-02-15T16:06:36;25.33;;;15.70;;
3789;SDS011;1910;49.042;9.028;2023-02-15T16:11:58;27.42;;;17.40;;
3789;SDS011;1910;49.042;9.028;2023-02-15T16:14:36;30.60;;;16.50;;
3789;SDS011;1910;49.042;9.028;2023-02-15T16:17:12;24.98;;;17.20;;
3789;SDS011;1910;49.042;9.028;2023-02-15T16:19:43;31.30;;;17.25;;
3789;SDS011;1910;49.042;9.028;2023-02-15T16:22:13;34.00;;;17.73;;
3789;SDS011;1910;49.042;9.028;2023-02-15T16:27:41;36.38;;;18.92;;
3789;SDS011;1910;49.042;9.028;2023-02-15T16:33:03;31.02;;;19.00;;
3789;SDS011;1910;49.042;9.028;2023-02-15T16:35:38;33.08;;;17.27;;
3789;SDS011;1910;49.042;9.028;2023-02-15T16:38:08;34.80;;;17.73;;
3789;SDS011;1910;49.042;9.028;2023-02-15T16:40:37;32.15;;;19.13;;
3789;SDS011;1910;49.042;9.028;2023-02-15T16:43:17;28.42;;;16.05;;
3789;SDS011;1910;49.042;9.028;2023-02-15T16:45:47;33.20;;;17.95;;
3789;SDS011;1910;49.042;9.028;2023-02-15T16:48:15;30.77;;;17.33;;
3789;SDS011;1910;49.042;9.028;2023-02-15T16:50:47;28.73;;;15.52;;
3789;SDS011;1910;49.042;9.028;2023-02-15T16:53:17;30.20;;;16.27;;
3789;SDS011;1910;49.042;9.028;2023-02-15T16:55:48;30.58;;;17.27;;
3789;SDS011;1910;49.042;9.028;2023-02-15T16:58:22;29.98;;;17.30;;
3789;SDS011;1910;49.042;9.028;2023-02-15T17:00:54;29.10;;;17.02;;
3789;SDS011;1910;49.042;9.028;2023-02-15T17:03:23;36.72;;;19.25;;
3789;SDS011;1910;49.042;9.028;2023-02-15T17:05:50;29.25;;;17.48;;
3789;SDS011;1910;49.042;9.028;2023-02-15T17:08:19;32.67;;;16.90;;
3789;SDS011;1910;49.042;9.028;2023-02-15T17:13:28;27.73;;;16.50;;
3789;SDS011;1910;49.042;9.028;2023-02-15T17:18:26;31.10;;;17.23;;
3789;SDS011;1910;49.042;9.028;2023-02-15T17:20:54;29.38;;;13.85;;
3789;SDS011;1910;49.042;9.028;2023-02-15T17:23:33;25.27;;;13.23;;
3789;SDS011;1910;49.042;9.028;2023-02-15T17:26:11;25.42;;;14.70;;
3789;SDS011;1910;49.042;9.028;2023-02-15T17:28:54;29.75;;;15.68;;
3789;SDS011;1910;49.042;9.028;2023-02-15T17:31:26;22.17;;;13.27;;
3789;SDS011;1910;49.042;9.028;2023-02-15T17:33:56;21.10;;;11.63;;
3789;SDS011;1910;49.042;9.028;2023-02-15T17:36:24;15.13;;;9.00;;
3789;SDS011;1910;49.042;9.028;2023-02-15T17:41:22;25.38;;;10.90;;
3789;SDS011;1910;49.042;9.028;2023-02-15T17:43:48;23.92;;;11.18;;
3789;SDS011;1910;49.042;9.028;2023-02-15T17:46:13;19.40;;;11.40;;
3789;SDS011;1910;49.042;9.028;2023-02-15T17:48:41;27.52;;;12.65;;
3789;SDS011;1910;49.042;9.028;2023-02-15T17:51:09;18.77;;;9.80;;